Time;durP1;ratioP1;P1;durP2;ratioP2;P2;SDS_P1;SDS_P2;PMS_P1;PMS_P2;Temp;Humidity;BMP_temperature;BMP_pressure;BME280_temperature;BME280_humidity;BME280_pressure;Samples;Min_cycle;Max_cycle;Signal;HPM_P1;HPM_P2
2022/07/14 00:00:55;;;;;;;4.90;2.95;;;21.80;99.90;;;;;;4994010;28;20470;-71
2022/07/14 00:03:21;;;;;;;2.60;2.30;;;21.80;99.90;;;;;;4986533;28;20046;-71
2022/07/14 00:05:47;;;;;;;3.25;2.95;;;21.80;99.90;;;;;;4993986;28;20026;-71
2022/07/14 00:08:12;;;;;;;4.47;3.05;;;21.80;99.90;;;;;;4994620;28;20033;-72
2022/07/14 00:10:38;;;;;;;2.63;2.42;;;21.70;99.90;;;;;;4992646;28;20644;-71
2022/07/14 00:13:04;;;;;;;6.90;2.58;;;21.70;99.90;;;;;;4994511;28;20244;-71
2022/07/14 00:15:31;;;;;;;3.33;2.42;;;21.70;99.90;;;;;;4993854;28;20084;-71
2022/07/14 00:17:58;;;;;;;4.10;2.95;;;21.70;99.90;;;;;;4994544;28;20221;-71
2022/07/14 00:20:25;;;;;;;3.25;2.80;;;21.70;99.90;;;;;;4993752;28;20062;-71
2022/07/14 00:22:50;;;;;;;4.63;2.55;;;21.70;99.90;;;;;;4994406;28;20478;-71
2022/07/14 00:25:16;;;;;;;2.88;2.55;;;21.70;99.90;;;;;;4993773;28;20034;-71
2022/07/14 00:27:43;;;;;;;4.35;3.15;;;21.80;99.90;;;;;;4994564;28;20026;-71
2022/07/14 00:30:10;;;;;;;3.00;2.60;;;21.80;99.90;;;;;;4992454;28;20038;-71
2022/07/14 00:32:35;;;;;;;4.05;2.70;;;21.80;99.90;;;;;;4994032;28;20042;-71
2022/07/14 00:35:05;;;;;;;5.18;2.50;;;21.70;99.90;;;;;;4992522;28;20026;-71
2022/07/14 00:37:31;;;;;;;3.15;2.22;;;21.80;99.90;;;;;;4991835;28;20072;-72
2022/07/14 00:39:57;;;;;;;4.03;2.53;;;21.80;99.90;;;;;;4993454;28;20050;-71
2022/07/14 00:42:29;;;;;;;3.28;2.60;;;21.80;99.90;;;;;;4996535;28;20052;-71
2022/07/14 00:44:55;;;;;;;2.80;2.60;;;21.80;99.90;;;;;;4993477;28;20023;-71
2022/07/14 00:47:21;;;;;;;9.27;2.78;;;21.80;99.90;;;;;;4993798;28;20381;-71
2022/07/14 00:49:47;;;;;;;4.53;2.42;;;21.70;99.90;;;;;;4993555;28;20076;-71
2022/07/14 00:52:12;;;;;;;4.30;2.95;;;21.70;99.90;;;;;;4993313;28;20034;-71
2022/07/14 00:54:38;;;;;;;7.80;2.63;;;21.70;99.90;;;;;;4993626;28;20054;-71
2022/07/14 00:57:04;;;;;;;3.95;2.60;;;21.60;99.90;;;;;;4993433;28;20270;-71
2022/07/14 00:59:29;;;;;;;3.13;2.65;;;21.60;99.90;;;;;;4993371;28;20030;-71
2022/07/14 01:01:55;;;;;;;3.38;3.00;;;21.60;99.90;;;;;;4993310;28;20085;-71
2022/07/14 01:04:20;;;;;;;3.00;2.75;;;21.50;99.90;;;;;;4993227;28;20042;-71
2022/07/14 01:06:46;;;;;;;3.10;2.80;;;21.50;99.90;;;;;;4993361;28;20347;-71
2022/07/14 01:09:12;;;;;;;3.22;2.85;;;21.50;99.90;;;;;;4993300;28;20026;-71
2022/07/14 01:11:38;;;;;;;3.30;2.72;;;21.50;99.90;;;;;;4994434;28;20432;-71
2022/07/14 01:14:03;;;;;;;7.78;3.13;;;21.40;99.90;;;;;;4993284;28;20451;-71
2022/07/14 01:16:30;;;;;;;4.78;3.00;;;21.40;99.90;;;;;;4993178;28;20572;-71
2022/07/14 01:18:55;;;;;;;3.08;2.80;;;21.40;99.90;;;;;;4993041;28;20409;-71
2022/07/14 01:21:21;;;;;;;5.30;3.28;;;21.40;99.90;;;;;;4994250;28;20019;-71
2022/07/14 01:23:47;;;;;;;3.22;2.85;;;21.40;99.90;;;;;;4991670;28;20026;-71
2022/07/14 01:26:12;;;;;;;3.15;2.75;;;21.40;99.90;;;;;;4993001;28;20033;-71
2022/07/14 01:28:38;;;;;;;3.70;3.28;;;21.40;99.90;;;;;;4993109;28;20705;-71
2022/07/14 01:31:04;;;;;;;4.65;2.80;;;21.40;99.90;;;;;;4992462;28;20020;-71
2022/07/14 01:33:30;;;;;;;4.30;3.05;;;21.40;99.90;;;;;;4993089;28;20038;-71
2022/07/14 01:35:55;;;;;;;3.42;2.70;;;21.40;99.90;;;;;;4992054;28;20030;-71
2022/07/14 01:38:21;;;;;;;4.15;2.70;;;21.40;99.90;;;;;;4993084;28;20031;-71
2022/07/14 01:40:47;;;;;;;3.47;3.17;;;21.40;99.90;;;;;;4994693;28;20036;-72
2022/07/14 01:43:12;;;;;;;2.67;2.47;;;21.30;99.90;;;;;;4992953;28;20023;-71
2022/07/14 01:45:38;;;;;;;2.78;2.50;;;21.30;99.90;;;;;;4992540;28;20485;-71
2022/07/14 01:48:04;;;;;;;3.25;2.60;;;21.30;99.90;;;;;;4992053;28;20022;-71
2022/07/14 01:50:29;;;;;;;3.85;2.67;;;21.30;99.90;;;;;;4991997;28;20057;-71
2022/07/14 01:52:55;;;;;;;5.63;2.35;;;21.20;99.90;;;;;;4992439;28;20410;-71
2022/07/14 01:55:21;;;;;;;6.97;2.88;;;21.20;99.90;;;;;;4990742;28;20363;-72
2022/07/14 01:57:46;;;;;;;2.88;2.65;;;21.20;99.90;;;;;;4992783;28;20486;-72
2022/07/14 02:00:13;;;;;;;3.08;2.75;;;21.20;99.90;;;;;;4990596;28;20026;-71
2022/07/14 02:02:38;;;;;;;3.63;2.90;;;21.20;99.90;;;;;;4992154;28;20039;-72
2022/07/14 02:05:07;;;;;;;3.20;2.90;;;21.20;99.90;;;;;;4991896;28;20037;-71
2022/07/14 02:07:33;;;;;;;4.88;2.90;;;21.10;99.90;;;;;;4990817;28;20564;-71
2022/07/14 02:12:43;;;;;;;6.15;3.05;;;21.20;99.90;;;;;;4994730;28;20101;-72
2022/07/14 02:15:09;;;;;;;2.95;2.67;;;21.30;99.90;;;;;;4991570;28;20489;-71
2022/07/14 02:17:35;;;;;;;5.28;2.88;;;21.30;99.90;;;;;;4991095;28;20022;-71
2022/07/14 02:20:01;;;;;;;6.05;3.13;;;21.20;99.90;;;;;;4993655;28;20053;-71
2022/07/14 02:22:27;;;;;;;3.20;2.88;;;21.20;99.90;;;;;;4992078;28;20068;-72
2022/07/14 02:24:53;;;;;;;3.92;3.00;;;21.20;99.90;;;;;;4990564;28;20033;-72
2022/07/14 02:27:19;;;;;;;3.50;3.17;;;21.10;99.90;;;;;;4992120;28;20026;-72
2022/07/14 02:29:45;;;;;;;4.57;3.03;;;21.10;99.90;;;;;;4991707;28;20053;-71
2022/07/14 02:32:11;;;;;;;3.78;2.75;;;21.00;99.90;;;;;;4991428;28;20149;-71
2022/07/14 02:34:37;;;;;;;7.97;3.38;;;21.00;99.90;;;;;;4990638;28;20165;-71
2022/07/14 02:37:02;;;;;;;4.18;3.00;;;21.00;99.90;;;;;;4990260;28;20054;-72
2022/07/14 02:39:29;;;;;;;3.92;3.28;;;21.00;99.90;;;;;;4990574;28;20524;-72
2022/07/14 02:41:54;;;;;;;3.40;3.08;;;21.00;99.90;;;;;;4994268;28;20149;-72
2022/07/14 02:44:20;;;;;;;3.33;3.03;;;20.90;99.90;;;;;;4991695;28;20102;-71
2022/07/14 02:46:46;;;;;;;3.08;2.78;;;20.90;99.90;;;;;;4991440;28;20038;-71
2022/07/14 02:49:11;;;;;;;4.20;3.00;;;20.80;99.90;;;;;;4991431;28;20023;-71
2022/07/14 02:51:37;;;;;;;6.80;3.22;;;20.80;99.90;;;;;;4991428;28;20600;-71
2022/07/14 02:54:03;;;;;;;3.40;3.10;;;20.80;99.90;;;;;;4990026;28;20038;-71
2022/07/14 02:56:29;;;;;;;4.03;2.95;;;20.70;99.90;;;;;;4990033;28;20168;-71
2022/07/14 02:58:54;;;;;;;4.93;2.75;;;20.70;99.90;;;;;;4991166;28;20039;-71
2022/07/14 03:01:20;;;;;;;3.53;2.53;;;20.80;99.90;;;;;;4991490;28;20034;-71
2022/07/14 03:03:46;;;;;;;4.13;2.70;;;20.80;99.90;;;;;;4990023;28;20046;-71
2022/07/14 03:06:14;;;;;;;4.22;2.47;;;20.80;99.90;;;;;;4991176;28;20030;-71
2022/07/14 03:08:40;;;;;;;2.50;2.30;;;20.80;99.90;;;;;;4991511;28;20113;-71
2022/07/14 03:11:07;;;;;;;2.80;2.35;;;20.80;99.90;;;;;;4992050;28;20050;-71
2022/07/14 03:13:33;;;;;;;5.15;2.60;;;20.90;99.90;;;;;;4991582;28;20029;-72
2022/07/14 03:15:59;;;;;;;2.40;2.20;;;20.90;99.90;;;;;;4989710;28;20026;-71
2022/07/14 03:18:25;;;;;;;5.63;2.85;;;20.90;99.90;;;;;;4991590;28;20077;-71
2022/07/14 03:20:52;;;;;;;3.05;2.80;;;20.90;99.90;;;;;;4992124;28;20440;-71
2022/07/14 03:23:19;;;;;;;3.05;2.40;;;20.80;99.90;;;;;;4983133;28;20029;-71
2022/07/14 03:25:45;;;;;;;4.25;2.80;;;20.80;99.90;;;;;;4989357;28;20030;-71
2022/07/14 03:28:11;;;;;;;4.90;2.90;;;20.80;99.90;;;;;;4990543;28;20470;-71
2022/07/14 03:30:37;;;;;;;2.42;2.20;;;20.80;99.90;;;;;;4983954;28;20022;-71
2022/07/14 03:33:03;;;;;;;4.88;2.83;;;20.80;99.90;;;;;;4990062;28;20096;-71
2022/07/14 03:35:29;;;;;;;3.10;2.72;;;20.70;99.90;;;;;;4990685;28;20121;-71
2022/07/14 03:37:55;;;;;;;3.28;2.53;;;20.70;99.90;;;;;;4991518;28;20026;-72
2022/07/14 03:40:21;;;;;;;4.22;2.60;;;20.70;99.90;;;;;;4990671;28;20034;-71
2022/07/14 03:42:46;;;;;;;2.95;2.65;;;20.70;99.90;;;;;;4993719;28;20076;-71
2022/07/14 03:45:12;;;;;;;5.13;2.53;;;20.70;99.90;;;;;;4990698;28;20425;-71
2022/07/14 03:47:38;;;;;;;2.90;2.70;;;20.70;99.90;;;;;;4991284;28;20062;-71
2022/07/14 03:50:04;;;;;;;5.43;2.60;;;20.60;99.90;;;;;;4991973;28;20485;-71
2022/07/14 03:52:29;;;;;;;4.30;2.78;;;20.60;99.90;;;;;;4988882;28;20045;-72
2022/07/14 03:54:55;;;;;;;4.03;2.58;;;20.60;99.90;;;;;;4990733;28;20053;-72
2022/07/14 03:57:21;;;;;;;7.28;2.78;;;20.60;99.90;;;;;;4990174;28;20031;-71
2022/07/14 03:59:48;;;;;;;3.67;2.90;;;20.60;99.90;;;;;;4990875;28;20397;-71
2022/07/14 04:02:13;;;;;;;4.63;2.72;;;20.60;99.90;;;;;;4989549;28;20026;-71
2022/07/14 04:04:40;;;;;;;4.07;3.22;;;20.60;99.90;;;;;;4990872;28;20117;-71
2022/07/14 04:07:07;;;;;;;3.40;3.10;;;20.50;99.90;;;;;;4989367;28;20062;-72
2022/07/14 04:09:33;;;;;;;5.60;3.17;;;20.50;99.90;;;;;;4989686;28;20285;-71
2022/07/14 04:11:59;;;;;;;4.28;2.97;;;20.50;99.90;;;;;;4994744;28;20043;-71
2022/07/14 04:14:24;;;;;;;7.68;2.92;;;20.50;99.90;;;;;;4994374;28;20054;-71
2022/07/14 04:16:52;;;;;;;6.53;3.40;;;20.50;99.90;;;;;;4993151;28;20023;-71
2022/07/14 04:19:18;;;;;;;7.05;2.90;;;20.60;99.90;;;;;;4994059;28;20117;-71
2022/07/14 04:21:44;;;;;;;5.60;2.70;;;20.60;99.90;;;;;;4994163;28;20543;-71
2022/07/14 04:24:10;;;;;;;4.47;2.70;;;20.70;99.90;;;;;;4994166;28;20018;-71
2022/07/14 04:26:40;;;;;;;11.40;3.00;;;20.70;99.90;;;;;;4992983;28;20133;-71
2022/07/14 04:29:06;;;;;;;5.25;2.58;;;20.70;99.90;;;;;;4993265;28;20022;-71
2022/07/14 04:31:31;;;;;;;5.32;2.78;;;20.80;99.90;;;;;;4994232;28;20026;-71
2022/07/14 04:33:57;;;;;;;6.60;2.85;;;20.80;99.90;;;;;;4993891;28;20122;-71
2022/07/14 04:36:23;;;;;;;4.45;2.70;;;20.90;99.90;;;;;;4994001;28;20022;-71
2022/07/14 04:38:49;;;;;;;4.75;2.75;;;20.90;99.90;;;;;;4994144;28;20054;-71
2022/07/14 04:41:14;;;;;;;4.78;2.78;;;21.00;99.90;;;;;;4996411;28;20389;-71
2022/07/14 04:43:40;;;;;;;4.60;3.10;;;21.00;99.90;;;;;;4994075;28;20520;-71
2022/07/14 04:46:06;;;;;;;3.47;2.85;;;21.10;99.90;;;;;;4993735;28;20393;-71
2022/07/14 04:52:01;;;;;;;4.20;2.83;;;21.10;99.90;;;;;;4994208;28;20026;-71
2022/07/14 04:54:01;;;;;;;4.30;2.85;;;21.20;99.90;;;;;;4993705;28;20068;-71
2022/07/14 04:56:27;;;;;;;4.45;2.80;;;21.30;99.90;;;;;;4993655;28;20058;-71
2022/07/14 04:58:53;;;;;;;4.03;2.80;;;21.40;99.90;;;;;;4993545;28;20026;-71
2022/07/14 05:01:18;;;;;;;3.45;2.67;;;21.50;99.90;;;;;;4991540;28;20481;-72
2022/07/14 05:03:44;;;;;;;4.85;2.20;;;21.60;99.90;;;;;;4993384;28;20409;-72
2022/07/14 05:06:11;;;;;;;3.33;2.55;;;21.70;99.90;;;;;;4992236;28;20053;-72
2022/07/14 05:08:37;;;;;;;3.38;2.60;;;21.90;99.90;;;;;;4993953;28;20105;-71
2022/07/14 05:11:04;;;;;;;4.13;3.10;;;22.00;99.90;;;;;;4995735;28;20030;-72
2022/07/14 05:13:30;;;;;;;11.77;2.92;;;22.20;99.90;;;;;;4993587;28;20027;-71
2022/07/14 05:15:56;;;;;;;4.93;2.50;;;22.40;99.90;;;;;;4992995;28;20050;-71
2022/07/14 05:18:21;;;;;;;10.07;3.00;;;22.50;99.90;;;;;;4992426;28;20027;-72
2022/07/14 05:20:47;;;;;;;9.45;2.50;;;22.70;99.90;;;;;;4992653;28;20102;-71
2022/07/14 05:23:13;;;;;;;13.80;3.33;;;22.90;99.90;;;;;;4990211;28;20108;-71
2022/07/14 05:25:39;;;;;;;13.07;3.58;;;23.10;99.90;;;;;;4991968;28;20081;-71
2022/07/14 05:28:06;;;;;;;8.02;2.50;;;23.30;99.90;;;;;;4992319;28;20037;-71
2022/07/14 05:30:31;;;;;;;9.63;2.88;;;23.50;99.90;;;;;;4992290;28;20030;-72
2022/07/14 05:32:58;;;;;;;13.23;3.00;;;23.70;99.90;;;;;;4991632;28;20038;-72
2022/07/14 05:35:23;;;;;;;22.42;3.75;;;23.80;99.90;;;;;;4992511;28;20049;-71
2022/07/14 05:37:49;;;;;;;7.40;2.55;;;23.90;99.90;;;;;;4992237;28;20074;-71
2022/07/14 05:40:15;;;;;;;6.03;1.90;;;24.00;99.90;;;;;;4991481;28;20502;-73
2022/07/14 05:42:42;;;;;;;5.32;2.15;;;24.10;99.90;;;;;;4995836;28;20058;-70
2022/07/14 05:45:08;;;;;;;5.13;2.10;;;24.20;99.90;;;;;;4990733;28;20440;-72
2022/07/14 05:47:34;;;;;;;3.20;2.20;;;24.30;99.90;;;;;;4990429;28;20084;-71
2022/07/14 05:49:59;;;;;;;6.60;2.00;;;24.40;99.90;;;;;;4988845;28;20030;-71
2022/07/14 05:52:25;;;;;;;1.92;1.65;;;24.50;99.90;;;;;;4989467;28;20046;-71
2022/07/14 05:54:51;;;;;;;2.15;1.80;;;24.60;99.90;;;;;;4989138;28;20030;-72
2022/07/14 05:57:17;;;;;;;6.57;2.05;;;24.70;99.90;;;;;;4990153;28;20516;-71
2022/07/14 05:59:42;;;;;;;5.50;1.88;;;24.80;99.90;;;;;;4991247;28;20023;-70
2022/07/14 06:02:08;;;;;;;3.53;1.60;;;24.90;99.90;;;;;;4992261;28;20398;-71
2022/07/14 06:04:34;;;;;;;6.57;2.00;;;25.00;99.90;;;;;;4992136;28;20053;-71
2022/07/14 06:07:00;;;;;;;3.63;2.17;;;25.00;99.90;;;;;;4992408;28;20045;-92
2022/07/14 06:09:25;;;;;;;7.95;2.13;;;25.10;99.90;;;;;;4991777;28;20026;-72
2022/07/14 06:11:51;;;;;;;8.40;2.33;;;25.00;99.90;;;;;;4993323;28;20064;-72
2022/07/14 06:14:17;;;;;;;9.30;2.00;;;24.80;99.90;;;;;;4992023;28;20116;-73
2022/07/14 06:16:43;;;;;;;4.88;2.25;;;24.60;99.90;;;;;;4992469;28;20042;-77
2022/07/14 06:19:09;;;;;;;7.00;1.92;;;24.60;99.90;;;;;;4993335;28;20362;-72
2022/07/14 06:21:34;;;;;;;4.57;2.38;;;24.40;99.90;;;;;;4987951;28;20098;-71
2022/07/14 06:24:00;;;;;;;3.15;2.20;;;24.40;99.90;;;;;;4991982;28;20026;-72
2022/07/14 06:26:26;;;;;;;6.53;2.58;;;24.30;99.90;;;;;;4990749;28;20030;-75
2022/07/14 06:28:52;;;;;;;5.00;2.55;;;24.30;99.90;;;;;;4993493;28;20080;-80
2022/07/14 06:31:17;;;;;;;6.25;2.22;;;24.30;99.90;;;;;;4990685;28;20069;-73
2022/07/14 06:33:43;;;;;;;7.25;2.95;;;24.40;99.90;;;;;;4991576;28;20537;-73
2022/07/14 06:36:09;;;;;;;5.85;2.67;;;24.40;99.90;;;;;;4991480;28;20029;-72
2022/07/14 06:38:35;;;;;;;5.25;2.45;;;24.50;99.90;;;;;;4992300;28;20037;-71
2022/07/14 06:41:01;;;;;;;13.68;2.85;;;24.60;99.90;;;;;;4993720;28;20392;-72
2022/07/14 06:43:27;;;;;;;6.40;2.40;;;24.60;99.90;;;;;;4992081;28;20029;-72
2022/07/14 06:45:52;;;;;;;13.02;2.50;;;24.70;99.90;;;;;;4991232;28;20081;-73
2022/07/14 06:48:19;;;;;;;17.38;2.90;;;24.80;99.90;;;;;;4983229;28;20037;-73
2022/07/14 06:50:45;;;;;;;8.20;2.75;;;24.90;99.90;;;;;;4992519;28;20061;-73
2022/07/14 06:53:11;;;;;;;15.85;2.95;;;25.00;99.90;;;;;;4990727;28;20478;-73
2022/07/14 06:55:37;;;;;;;4.35;2.72;;;25.00;99.90;;;;;;4990901;28;20046;-74
2022/07/14 06:58:03;;;;;;;7.70;2.80;;;25.10;99.90;;;;;;4991865;28;20041;-73
2022/07/14 07:00:29;;;;;;;10.40;2.78;;;25.10;99.90;;;;;;4991070;28;20022;-73
2022/07/14 07:02:55;;;;;;;10.38;2.63;;;25.20;99.90;;;;;;4991434;28;20043;-73
2022/07/14 07:08:05;;;;;;;6.40;2.28;;;25.30;99.90;;;;;;4991634;28;20433;-73
2022/07/14 07:10:31;;;;;;;11.85;3.03;;;25.50;99.90;;;;;;4991600;28;20023;-73
2022/07/14 07:12:57;;;;;;;13.77;4.68;;;25.70;99.90;;;;;;4993365;28;20457;-73
2022/07/14 07:15:23;;;;;;;14.88;4.20;;;25.90;99.90;;;;;;4990816;28;20110;-73
2022/07/14 07:17:49;;;;;;;25.35;8.18;;;26.00;99.90;;;;;;4991538;28;20129;-73
2022/07/14 07:20:15;;;;;;;23.48;6.65;;;26.20;99.90;;;;;;4990830;28;20053;-73
2022/07/14 07:22:41;;;;;;;15.68;5.32;;;26.30;99.90;;;;;;4990016;28;20027;-73
2022/07/14 07:25:07;;;;;;;12.10;3.90;;;26.40;99.90;;;;;;4990702;28;20049;-73
2022/07/14 07:27:33;;;;;;;7.63;3.60;;;26.50;99.90;;;;;;4991524;28;20033;-73
2022/07/14 07:30:00;;;;;;;7.57;3.30;;;26.60;99.90;;;;;;4990829;28;20023;-73
2022/07/14 07:32:29;;;;;;;10.18;3.25;;;26.60;99.90;;;;;;4991278;28;20058;-73
2022/07/14 07:34:55;;;;;;;12.10;2.85;;;26.50;99.90;;;;;;4990680;28;20033;-73
2022/07/14 07:37:21;;;;;;;7.63;2.45;;;26.50;99.90;;;;;;4991223;28;20018;-71
2022/07/14 07:39:47;;;;;;;4.25;2.22;;;26.30;99.90;;;;;;4989954;28;20137;-73
2022/07/14 07:42:13;;;;;;;6.43;2.83;;;26.30;99.90;;;;;;4992115;28;20037;-73
2022/07/14 07:44:39;;;;;;;4.15;2.28;;;26.30;99.90;;;;;;4991201;28;20097;-73
2022/07/14 07:47:05;;;;;;;8.05;2.60;;;26.20;99.90;;;;;;4991457;28;20054;-73
2022/07/14 07:49:31;;;;;;;3.88;2.22;;;26.10;99.90;;;;;;4994560;28;20083;-73
2022/07/14 07:52:00;;;;;;;4.65;2.03;;;26.10;99.90;;;;;;4994370;28;20034;-73
2022/07/14 07:54:27;;;;;;;5.53;2.00;;;26.10;99.90;;;;;;4994673;28;20022;-72
2022/07/14 07:56:54;;;;;;;7.95;2.55;;;26.10;99.90;;;;;;4994516;28;20054;-73
2022/07/14 07:59:19;;;;;;;13.90;2.50;;;26.20;99.90;;;;;;4993469;28;20022;-72
2022/07/14 08:01:45;;;;;;;5.63;2.00;;;26.40;99.90;;;;;;4994330;28;20077;-72
2022/07/14 08:04:11;;;;;;;6.10;1.92;;;26.40;99.90;;;;;;4994219;28;20187;-72
2022/07/14 08:06:37;;;;;;;7.80;1.90;;;26.50;99.90;;;;;;4994515;28;20077;-73
2022/07/14 08:09:03;;;;;;;4.38;2.25;;;26.60;99.90;;;;;;4994445;28;20477;-72
2022/07/14 08:11:29;;;;;;;12.52;1.63;;;26.70;99.90;;;;;;4996681;28;20045;-72
2022/07/14 08:13:55;;;;;;;6.00;1.65;;;26.80;99.90;;;;;;4993159;28;20389;-73
2022/07/14 08:16:21;;;;;;;4.60;1.38;;;26.90;99.90;;;;;;4992887;28;20429;-72
2022/07/14 08:18:49;;;;;;;2.03;1.60;;;27.00;99.90;;;;;;4994468;28;20072;-72
2022/07/14 08:21:14;;;;;;;2.78;1.80;;;27.10;99.90;;;;;;4995391;28;20080;-72
2022/07/14 08:23:40;;;;;;;2.47;1.30;;;27.30;99.90;;;;;;4994249;28;20384;-73
2022/07/14 08:26:06;;;;;;;6.03;1.70;;;27.30;99.90;;;;;;4993837;28;20477;-71
2022/07/14 08:28:31;;;;;;;1.67;1.40;;;27.40;99.90;;;;;;4994356;28;20157;-74
2022/07/14 08:30:57;;;;;;;3.35;1.40;;;27.40;99.90;;;;;;4993500;28;20030;-72
2022/07/14 08:33:23;;;;;;;2.38;1.33;;;27.40;99.90;;;;;;4994056;28;20121;-72
2022/07/14 08:35:48;;;;;;;2.38;1.50;;;27.50;99.90;;;;;;4993749;28;20023;-74
2022/07/14 08:38:14;;;;;;;3.67;1.35;;;27.70;99.90;;;;;;4994266;28;20142;-74
2022/07/14 08:40:40;;;;;;;3.72;1.70;;;27.70;99.90;;;;;;4995133;28;20019;-73
2022/07/14 08:43:06;;;;;;;8.40;1.67;;;27.80;99.90;;;;;;4994619;28;20025;-74
2022/07/14 08:45:42;;;;;;;2.45;1.40;;;27.90;99.90;;;;;;4993456;28;20484;-73
2022/07/14 08:48:11;;;;;;;2.97;1.42;;;27.90;99.90;;;;;;4993952;28;20507;-73
2022/07/14 08:50:37;;;;;;;3.28;1.60;;;28.00;99.90;;;;;;4994511;28;20077;-73
2022/07/14 08:53:03;;;;;;;3.83;1.55;;;28.10;99.90;;;;;;4993606;28;20042;-72
2022/07/14 08:55:30;;;;;;;4.15;1.40;;;28.20;99.90;;;;;;4991769;28;20038;-72
2022/07/14 08:57:56;;;;;;;3.03;1.40;;;28.20;99.90;;;;;;4993523;28;20045;-73
2022/07/14 09:00:22;;;;;;;5.82;1.55;;;28.20;99.90;;;;;;4993021;28;20019;-73
2022/07/14 09:02:50;;;;;;;3.70;1.52;;;28.20;99.90;;;;;;4993561;28;20052;-72
2022/07/14 09:05:16;;;;;;;5.68;1.80;;;28.20;99.90;;;;;;4991977;28;20389;-72
2022/07/14 09:07:43;;;;;;;4.22;1.63;;;28.10;99.90;;;;;;4992191;28;20057;-74
2022/07/14 09:10:15;;;;;;;8.25;1.58;;;28.00;99.90;;;;;;4992848;28;21444;-72
2022/07/14 09:12:41;;;;;;;7.22;1.60;;;27.90;99.90;;;;;;4996106;28;20073;-72
2022/07/14 09:17:58;;;;;;;3.10;1.40;;;27.80;99.90;;;;;;4991100;28;20052;-72
2022/07/14 09:20:25;;;;;;;2.90;1.50;;;27.80;99.90;;;;;;4993948;28;20030;-74
2022/07/14 09:22:58;;;;;;;4.20;1.70;;;27.90;99.90;;;;;;4993162;28;20034;-72
2022/07/14 09:25:26;;;;;;;4.13;1.60;;;27.80;99.90;;;;;;4992544;28;20033;-75
2022/07/14 09:27:53;;;;;;;3.00;1.40;;;27.80;99.90;;;;;;4992074;28;20085;-72
2022/07/14 09:30:19;;;;;;;3.83;1.60;;;27.80;99.90;;;;;;4992830;28;20026;-73
2022/07/14 09:33:04;;;;;;;3.35;1.50;;;27.80;99.90;;;;;;4992984;28;20519;-73
2022/07/14 09:35:36;;;;;;;4.43;1.60;;;27.80;99.90;;;;;;4992492;28;20034;-72
2022/07/14 09:38:20;;;;;;;3.33;1.60;;;27.70;99.90;;;;;;4992933;28;20022;-73
2022/07/14 09:40:47;;;;;;;5.00;1.73;;;27.80;99.90;;;;;;4993381;28;20042;-73
2022/07/14 09:43:13;;;;;;;3.22;1.98;;;28.10;99.90;;;;;;4993012;28;20054;-72
2022/07/14 09:45:40;;;;;;;4.20;2.10;;;28.20;99.90;;;;;;4992331;28;20028;-72
2022/07/14 09:48:16;;;;;;;3.63;1.98;;;28.30;99.90;;;;;;4992856;28;20555;-73
2022/07/14 09:50:54;;;;;;;2.20;1.52;;;28.50;99.90;;;;;;4993591;28;20033;-73
2022/07/14 09:53:28;;;;;;;2.53;1.52;;;28.60;99.90;;;;;;4982893;28;20173;-73
2022/07/14 09:56:09;;;;;;;8.93;1.95;;;28.60;99.90;;;;;;4992124;28;20028;-73
2022/07/14 09:58:51;;;;;;;4.40;1.52;;;28.70;99.50;;;;;;4992750;28;20030;-72
2022/07/14 10:01:19;;;;;;;9.05;1.67;;;28.80;99.10;;;;;;4992040;28;20033;-74
2022/07/14 10:03:46;;;;;;;2.20;1.40;;;28.70;98.70;;;;;;4992105;28;20078;-72
2022/07/14 10:06:13;;;;;;;3.90;1.48;;;28.70;98.90;;;;;;4991146;28;20023;-72
2022/07/14 10:08:46;;;;;;;5.03;1.60;;;28.70;99.20;;;;;;4990681;28;20061;-72
2022/07/14 10:11:12;;;;;;;2.90;1.55;;;28.70;97.90;;;;;;4993624;28;20056;-72
2022/07/14 10:13:39;;;;;;;5.05;1.60;;;28.70;98.50;;;;;;4992287;28;20058;-73
2022/07/14 10:16:06;;;;;;;6.10;1.70;;;28.70;97.60;;;;;;4990417;28;20029;-73
2022/07/14 10:18:33;;;;;;;1.48;1.38;;;28.70;98.70;;;;;;4992343;28;20027;-74
2022/07/14 10:21:00;;;;;;;2.33;1.63;;;28.70;98.20;;;;;;4992925;28;20030;-73
2022/07/14 10:23:29;;;;;;;3.22;1.50;;;28.70;98.00;;;;;;4992380;28;20122;-73
2022/07/14 10:25:56;;;;;;;5.53;1.67;;;28.60;97.90;;;;;;4991549;28;20034;-72
2022/07/14 10:28:22;;;;;;;5.80;1.50;;;28.50;97.60;;;;;;4992476;28;20075;-74
2022/07/14 10:31:25;;;;;;;4.30;1.58;;;28.50;98.10;;;;;;4991629;28;20034;-73
2022/07/14 10:34:00;;;;;;;4.78;1.30;;;28.70;97.10;;;;;;4987462;28;20085;-73
2022/07/14 10:36:47;;;;;;;2.72;1.40;;;29.10;97.10;;;;;;4990347;28;20038;-73
2022/07/14 10:39:41;;;;;;;2.75;1.40;;;29.50;95.20;;;;;;4991665;28;20018;-72
2022/07/14 10:42:30;;;;;;;4.90;1.65;;;30.00;93.70;;;;;;4993302;28;20387;-73
2022/07/14 10:44:56;;;;;;;1.50;1.25;;;30.30;94.40;;;;;;4991303;28;20050;-73
2022/07/14 10:47:25;;;;;;;2.85;1.38;;;30.30;92.80;;;;;;4990780;28;20045;-73
2022/07/14 10:50:09;;;;;;;4.25;1.27;;;30.40;94.50;;;;;;4992378;28;20023;-73
2022/07/14 10:53:08;;;;;;;6.30;1.45;;;30.40;93.60;;;;;;4990100;28;20038;-73
2022/07/14 10:55:35;;;;;;;2.88;1.60;;;30.50;93.20;;;;;;4979011;28;20117;-72
2022/07/14 10:58:01;;;;;;;4.32;1.30;;;30.70;89.60;;;;;;4991849;28;20026;-72
2022/07/14 11:00:47;;;;;;;2.33;1.33;;;30.70;92.00;;;;;;4989619;28;20544;-71
2022/07/14 11:03:37;;;;;;;1.65;1.00;;;30.70;90.00;;;;;;4990867;28;20141;-72
2022/07/14 11:06:03;;;;;;;3.20;1.10;;;30.80;85.70;;;;;;4985877;28;20041;-72
2022/07/14 11:08:30;;;;;;;2.42;1.30;;;30.70;80.70;;;;;;4991528;28;20477;-73
2022/07/14 11:10:58;;;;;;;1.52;1.20;;;30.70;85.80;;;;;;4993453;28;20044;-73
2022/07/14 11:13:24;;;;;;;1.52;1.00;;;30.70;85.60;;;;;;4991602;28;20485;-73
2022/07/14 11:15:54;;;;;;;1.63;1.00;;;31.00;79.20;;;;;;4990892;28;20030;-73
2022/07/14 11:18:26;;;;;;;1.30;1.20;;;31.20;77.50;;;;;;4983223;28;20030;-73
2022/07/14 11:21:06;;;;;;;3.45;1.30;;;31.30;80.30;;;;;;4992557;28;20084;-74
2022/07/14 11:23:48;;;;;;;1.67;1.20;;;31.30;83.70;;;;;;4988963;28;20624;-73
2022/07/14 11:26:34;;;;;;;5.05;1.50;;;31.20;75.00;;;;;;4993745;28;20065;-74
2022/07/14 11:29:02;;;;;;;4.13;1.30;;;31.30;79.40;;;;;;4996422;28;20053;-73
2022/07/14 11:31:48;;;;;;;2.83;1.42;;;31.40;79.80;;;;;;4994618;28;20030;-72
2022/07/14 11:37:15;;;;;;;1.35;1.10;;;31.60;70.40;;;;;;4995083;28;20112;-72
2022/07/14 11:39:42;;;;;;;2.88;1.50;;;31.80;70.20;;;;;;4995002;28;20039;-73
2022/07/14 11:42:16;;;;;;;3.05;0.90;;;32.10;77.20;;;;;;4995226;28;20121;-73
2022/07/14 11:44:43;;;;;;;1.23;0.88;;;32.30;65.60;;;;;;4993520;28;20482;-73
2022/07/14 11:47:15;;;;;;;2.88;1.38;;;32.10;65.70;;;;;;4993594;28;20197;-73
2022/07/14 11:49:41;;;;;;;;;;;32.10;78.30;;;;;;4996601;28;20120;-73
2022/07/14 11:52:09;;;;;;;1.90;1.20;;;32.30;72.80;;;;;;4993494;28;20388;-74
2022/07/14 11:54:35;;;;;;;5.10;1.70;;;32.10;79.80;;;;;;4994848;28;20041;-73
2022/07/14 11:57:03;;;;;;;6.30;1.65;;;32.10;85.30;;;;;;4994690;28;20019;-73
2022/07/14 11:59:30;;;;;;;2.65;1.40;;;32.10;90.20;;;;;;4994695;28;20035;-73
2022/07/14 12:02:10;;;;;;;5.25;1.65;;;32.10;88.00;;;;;;4994570;28;20080;-72
2022/07/14 12:04:57;;;;;;;2.95;1.50;;;31.80;90.00;;;;;;4982608;28;20050;-74
2022/07/14 12:07:43;;;;;;;2.75;1.40;;;31.40;90.40;;;;;;4993841;28;20029;-71
2022/07/14 12:10:13;;;;;;;3.17;1.20;;;31.50;91.10;;;;;;4994060;28;20034;-73
2022/07/14 12:12:47;;;;;;;3.85;1.52;;;32.00;90.30;;;;;;4996993;28;20034;-72
2022/07/14 12:15:24;;;;;;;15.63;2.28;;;32.30;92.50;;;;;;4992548;28;20054;-73
2022/07/14 12:17:52;;;;;;;3.63;1.70;;;32.10;91.70;;;;;;4991699;28;20037;-72
2022/07/14 12:20:18;;;;;;;5.53;1.70;;;31.80;92.70;;;;;;4995167;28;20030;-72
2022/07/14 12:22:50;;;;;;;3.13;1.80;;;31.40;93.60;;;;;;4993161;28;20025;-73
2022/07/14 12:25:26;;;;;;;4.10;1.55;;;31.60;92.30;;;;;;4992329;28;20434;-73
2022/07/14 12:27:52;;;;;;;1.88;1.30;;;31.70;94.40;;;;;;4991863;28;20417;-72
2022/07/14 12:30:17;;;;;;;1.65;1.35;;;31.50;88.70;;;;;;4992375;28;20026;-72
2022/07/14 12:32:44;;;;;;;2.85;1.42;;;31.30;90.60;;;;;;4992212;28;20037;-72
2022/07/14 12:35:10;;;;;;;8.05;1.65;;;31.30;94.10;;;;;;4992503;28;20027;-72
2022/07/14 12:37:36;;;;;;;13.57;1.70;;;31.30;94.50;;;;;;4989596;28;20620;-71
2022/07/14 12:40:04;;;;;;;4.78;1.42;;;31.50;93.70;;;;;;4990028;28;20444;-73
2022/07/14 12:42:31;;;;;;;2.30;1.40;;;31.80;92.70;;;;;;4984802;28;20027;-72
2022/07/14 12:45:02;;;;;;;5.82;1.80;;;31.90;88.90;;;;;;4991219;28;20042;-72
2022/07/14 12:47:28;;;;;;;;;;;32.20;92.90;;;;;;4998011;28;20022;-72
2022/07/14 12:49:54;;;;;;;2.40;1.65;;;32.30;92.00;;;;;;4992252;28;19916;-73
2022/07/14 12:52:21;;;;;;;3.65;1.70;;;32.80;92.30;;;;;;4991783;28;20441;-72
2022/07/14 12:54:46;;;;;;;3.22;1.25;;;33.10;91.30;;;;;;4993265;28;20026;-73
2022/07/14 12:57:23;;;;;;;2.17;1.33;;;33.40;90.30;;;;;;4993780;28;20026;-73
2022/07/14 12:59:49;;;;;;;6.10;1.45;;;33.90;89.80;;;;;;4993619;28;20026;-72
2022/07/14 13:02:23;;;;;;;2.97;1.17;;;34.10;89.70;;;;;;4993353;28;20022;-72